Rochester, Wisconsin
Current Conditions -  °F | °C
As of 6:35 AM on Thursday 23 Oct 2014 (Local Time) from KBUU Reporting Station
Haze Haze  
Wind Chill: 26°   Ceiling: Unl
Heat Index: 26°   Visibility: 2.5mi
Dew Point: 26°   Wind: 0mph
Humidity: 99%   Direction: NA
Pressure: 30.2"   Gusts: NA
Location:  42.74°N, 88.22°W
Report Text: KBUU 231135Z AUTO 00000KT 2 1/2SM BR CLR M03/M03 A3020 RMK AO2 T10331034
Loading
Personal Weather Stations






























Interactive Weather Map
Tropical Storm Tracking
New forecast layout! Learn more

10-Day Weather Forecast

Advertisements
Track Severe Weather on mobile